Time;durP1;ratioP1;P1;durP2;ratioP2;P2;SDS_P1;SDS_P2;PMS_P1;PMS_P2;Temp;Humidity;BMP_temperature;BMP_pressure;BME280_temperature;BME280_humidity;BME280_pressure;Samples;Min_cycle;Max_cycle;Signal;HPM_P1;HPM_P2
2022/05/17 00:02:11;;;;;;;17.33;5.72;;;;;;;23.82;50.63;101419.78;4951083;28;20109;-83
2022/05/17 00:04:37;;;;;;;8.32;4.80;;;;;;;23.78;50.79;101412.28;4950838;28;20106;-82
2022/05/17 00:07:05;;;;;;;9.48;6.10;;;;;;;23.91;50.96;101444.88;4950225;28;20073;-82
2022/05/17 00:09:33;;;;;;;12.88;5.88;;;;;;;23.85;51.25;101448.38;4967722;28;20122;-82
2022/05/17 00:11:59;;;;;;;9.43;5.35;;;;;;;23.72;51.50;101451.03;4950215;28;20160;-82
2022/05/17 00:14:26;;;;;;;11.15;6.07;;;;;;;;;;4950252;28;20047;-81
2022/05/17 00:16:53;;;;;;;11.07;6.07;;;;;;;23.64;51.59;101452.88;4950140;28;20380;-82
2022/05/17 00:19:21;;;;;;;7.28;5.40;;;;;;;23.45;52.02;101424.63;4949617;28;20104;-82
2022/05/17 00:21:48;;;;;;;8.65;5.03;;;;;;;23.46;52.25;101436.31;4950137;28;20101;-81
2022/05/17 00:24:22;;;;;;;13.75;5.85;;;;;;;23.59;52.23;101449.94;4950412;28;20047;-82
2022/05/17 00:26:49;;;;;;;9.77;6.05;;;;;;;23.63;51.53;101432.22;4967444;28;20090;-81
2022/05/17 00:29:16;;;;;;;8.13;6.13;;;;;;;23.45;52.55;101405.66;4967065;28;20054;-82
2022/05/17 00:31:43;;;;;;;11.93;6.38;;;;;;;23.62;52.72;101438.69;4950095;28;20102;-81
2022/05/17 00:34:10;;;;;;;15.35;7.50;;;;;;;23.35;53.04;101383.53;4967205;28;20405;-82
2022/05/17 00:36:37;;;;;;;9.88;6.05;;;;;;;23.65;53.24;101442.84;4967623;28;20051;-81
2022/05/17 00:39:04;;;;;;;7.60;5.72;;;;;;;23.50;53.72;101434.00;4949622;28;20539;-82
2022/05/17 00:41:31;;;;;;;8.82;5.70;;;;;;;23.38;52.71;101421.06;4949844;28;20055;-81
2022/05/17 00:47:03;;;;;;;9.95;5.50;;;;;;;23.43;51.95;101440.25;4968276;28;20129;-81
2022/05/17 00:49:53;;;;;;;7.95;5.05;;;;;;;23.45;52.13;101445.50;4957849;28;20303;-82
2022/05/17 00:52:30;;;;;;;8.48;5.03;;;;;;;23.34;52.57;101418.94;4954154;28;20046;-82
2022/05/17 00:55:14;;;;;;;9.45;6.05;;;;;;;23.44;53.85;101438.38;4953519;28;20055;-81
2022/05/17 00:57:51;;;;;;;7.68;6.20;;;;;;;23.37;54.35;101432.09;4953809;28;20494;-82
2022/05/17 01:00:19;;;;;;;10.70;6.70;;;;;;;23.31;54.46;101424.78;4953596;28;20130;-81
2022/05/17 01:02:56;;;;;;;14.55;7.03;;;;;;;22.90;55.19;101352.44;4954161;28;20074;-81
2022/05/17 01:05:24;;;;;;;11.55;6.65;;;;;;;23.25;55.33;101419.13;4970565;28;20125;-81
2022/05/17 01:07:54;;;;;;;14.30;7.38;;;;;;;23.19;55.36;101398.25;4953511;28;20061;-82
2022/05/17 01:10:24;;;;;;;12.47;6.70;;;;;;;23.31;54.67;101394.97;4953408;28;20171;-82
2022/05/17 01:15:39;;;;;;;10.95;5.03;;;;;;;23.16;50.53;101392.41;4970540;28;20221;-82
2022/05/17 01:18:06;;;;;;;8.68;5.78;;;;;;;23.21;51.07;101412.44;4970840;28;20126;-82
2022/05/17 01:20:33;;;;;;;12.52;6.35;;;;;;;23.31;52.80;101427.50;4952850;28;20477;-82
2022/05/17 01:23:00;;;;;;;10.18;5.90;;;;;;;23.10;52.20;101390.50;4953192;28;20101;-82
2022/05/17 01:25:28;;;;;;;8.27;5.65;;;;;;;23.29;52.79;101432.28;4953452;28;20097;-82
2022/05/17 01:28:01;;;;;;;13.02;6.68;;;;;;;23.12;54.26;101413.63;4953228;28;20058;-82
2022/05/17 01:30:30;;;;;;;16.75;7.82;;;;;;;23.33;54.68;101436.25;4953417;28;20054;-82
2022/05/17 01:32:57;;;;;;;12.48;7.45;;;;;;;22.43;55.48;101305.28;4970344;28;20042;-82
2022/05/17 01:35:24;;;;;;;10.40;7.32;;;;;;;22.60;55.76;101322.91;4952987;28;20057;-82
2022/05/17 01:37:55;;;;;;;15.77;7.50;;;;;;;23.02;55.60;101397.75;4953260;28;20050;-82
2022/05/17 01:40:24;;;;;;;11.10;6.80;;;;;;;23.08;55.96;101428.59;4952977;28;20688;-82
2022/05/17 01:42:51;;;;;;;12.02;6.93;;;;;;;23.15;55.10;101417.81;4952708;28;20575;-82
2022/05/17 01:45:18;;;;;;;12.90;7.75;;;;;;;22.80;55.16;101378.00;4969859;28;20043;-82
2022/05/17 01:47:46;;;;;;;8.48;7.05;;;;;;;23.02;55.35;101421.28;4952522;28;20051;-82
2022/05/17 01:50:12;;;;;;;12.35;7.20;;;;;;;23.00;55.64;101417.94;4952635;28;20055;-81
2022/05/17 01:52:39;;;;;;;10.98;7.53;;;;;;;22.46;55.68;101332.81;4953949;28;20042;-82
2022/05/17 01:55:08;;;;;;;15.52;7.35;;;;;;;22.89;56.23;101419.31;4955974;28;20130;-82
2022/05/17 01:57:35;;;;;;;11.68;7.10;;;;;;;22.70;56.58;101393.75;4972006;28;20046;-82
2022/05/17 02:00:08;;;;;;;13.43;7.22;;;;;;;22.82;56.51;101416.53;4952121;28;20097;-82
2022/05/17 02:02:38;;;;;;;19.88;7.47;;;;;;;22.68;56.65;101398.53;4953696;28;20141;-81
2022/05/17 02:05:06;;;;;;;10.25;7.18;;;;;;;22.54;56.66;101381.34;4954338;28;20507;-82
2022/05/17 02:07:34;;;;;;;11.90;7.50;;;;;;;22.68;56.76;101413.94;4954933;28;20211;-82
2022/05/17 02:10:04;;;;;;;15.73;6.90;;;;;;;22.64;56.33;101418.88;4953017;28;20539;-82
2022/05/17 02:12:31;;;;;;;9.98;6.10;;;;;;;22.16;55.95;101346.50;4952644;28;20094;-82
2022/05/17 02:14:57;;;;;;;12.68;6.05;;;;;;;22.55;55.35;101403.81;4952576;28;20125;-82
2022/05/17 02:17:24;;;;;;;9.57;5.03;;;;;;;22.21;53.13;101335.13;4952263;28;20051;-82
2022/05/17 02:19:51;;;;;;;5.90;4.70;;;;;;;22.71;51.35;101400.84;4952048;28;20137;-81
2022/05/17 02:22:26;;;;;;;7.68;5.03;;;;;;;22.68;50.04;101397.69;4969592;28;20100;-81
2022/05/17 02:24:53;;;;;;;7.05;4.85;;;;;;;22.69;49.93;101402.91;4969547;28;20113;-82
2022/05/17 02:27:19;;;;;;;10.93;4.85;;;;;;;22.77;49.33;101410.88;4952202;28;20145;-81
2022/05/17 02:29:48;;;;;;;7.38;4.45;;;;;;;22.71;49.04;101398.13;4952591;28;20043;-82
2022/05/17 02:32:16;;;;;;;7.78;4.63;;;;;;;22.59;48.84;101365.34;4952024;28;20125;-80
2022/05/17 02:34:43;;;;;;;4.85;4.40;;;;;;;22.75;48.96;101390.47;4952051;28;20085;-81
2022/05/17 02:37:10;;;;;;;4.68;4.32;;;;;;;22.77;49.22;101389.22;4968902;28;20492;-81
2022/05/17 02:39:37;;;;;;;13.85;5.30;;;;;;;22.76;49.13;101382.13;4951916;28;20089;-88
2022/05/17 02:42:04;;;;;;;8.35;4.80;;;;;;;22.54;49.33;101350.75;4952067;28;20050;-81
2022/05/17 02:44:31;;;;;;;7.78;5.40;;;;;;;22.37;49.15;101307.75;4951552;28;20105;-82
2022/05/17 02:46:57;;;;;;;7.53;5.72;;;;;;;22.38;49.39;101333.78;4951601;28;20054;-83
2022/05/17 02:49:24;;;;;;;9.85;5.93;;;;;;;22.62;49.48;101372.25;4969286;28;20117;-82
2022/05/17 02:51:51;;;;;;;7.88;5.85;;;;;;;22.64;49.62;101378.28;4968824;28;20051;-82
2022/05/17 02:54:17;;;;;;;12.70;6.20;;;;;;;22.78;49.67;101395.47;4951640;28;20050;-81
2022/05/17 02:56:44;;;;;;;11.27;5.88;;;;;;;22.52;50.07;101360.94;4968947;28;20047;-81
2022/05/17 02:59:12;;;;;;;10.25;6.10;;;;;;;22.67;50.08;101388.75;4951374;28;20058;-83
2022/05/17 03:01:39;;;;;;;5.25;4.75;;;;;;;22.52;50.00;101382.56;4951398;28;20046;-83
2022/05/17 03:04:05;;;;;;;11.63;6.25;;;;;;;22.33;50.14;101351.63;4951944;28;20508;-82
2022/05/17 03:06:32;;;;;;;11.30;5.65;;;;;;;22.63;49.89;101403.69;4948618;29;20509;-82
2022/05/17 03:08:59;;;;;;;8.65;5.70;;;;;;;22.52;50.00;101401.50;4947714;29;20055;-82
2022/05/17 03:11:29;;;;;;;10.13;5.50;;;;;;;22.62;50.07;101418.25;4947101;28;20055;-82
2022/05/17 03:13:55;;;;;;;9.05;5.60;;;;;;;22.27;50.28;101372.19;4948108;29;20462;-83
2022/05/17 03:16:31;;;;;;;9.32;5.32;;;;;;;22.43;50.17;101399.97;4948257;28;20169;-82
2022/05/17 03:19:00;;;;;;;10.15;6.68;;;;;;;22.13;50.23;101356.84;4948067;29;20055;-82
2022/05/17 03:21:27;;;;;;;15.07;5.22;;;;;;;22.30;49.66;101393.44;4947664;29;20055;-82
2022/05/17 03:23:54;;;;;;;12.43;4.85;;;;;;;22.45;49.46;101414.97;4947977;29;20075;-81
2022/05/17 03:26:22;;;;;;;10.02;5.03;;;;;;;22.27;49.31;101390.28;4947799;28;20067;-82
2022/05/17 03:28:48;;;;;;;7.57;4.85;;;;;;;22.36;49.30;101410.75;4947673;28;20077;-82
2022/05/17 03:31:15;;;;;;;5.28;4.78;;;;;;;20.81;49.84;101176.16;4948631;28;21320;-82
2022/05/17 03:33:42;;;;;;;10.68;4.97;;;;;;;22.00;49.70;101359.44;4947634;28;20047;-82
2022/05/17 03:36:10;;;;;;;8.45;4.78;;;;;;;22.01;49.75;101371.91;4947192;29;20713;-81
2022/05/17 03:38:38;;;;;;;8.18;4.93;;;;;;;22.00;49.77;101370.25;4948639;28;20090;-81
2022/05/17 03:41:04;;;;;;;8.93;5.65;;;;;;;21.96;49.87;101376.00;4948532;29;20047;-81
2022/05/17 03:43:31;;;;;;;15.20;5.18;;;;;;;21.99;49.90;101382.91;4948648;28;20055;-82
2022/05/17 03:46:07;;;;;;;5.38;4.88;;;;;;;21.75;50.49;101351.72;4948635;28;20454;-82
2022/05/17 03:48:37;;;;;;;7.72;4.85;;;;;;;21.91;50.67;101397.38;4947450;29;20159;-81
2022/05/17 03:51:15;;;;;;;10.02;4.97;;;;;;;22.13;50.68;101435.25;4947315;29;20051;-82
2022/05/17 03:53:42;;;;;;;6.88;5.53;;;;;;;22.01;50.32;101404.34;4947170;28;20051;-82
2022/05/17 03:56:10;;;;;;;7.28;4.55;;;;;;;21.96;50.18;101391.41;4947130;29;20047;-83
2022/05/17 03:58:37;;;;;;;5.93;4.60;;;;;;;22.02;50.28;101417.69;4947298;29;20145;-82
2022/05/17 04:01:05;;;;;;;8.15;4.75;;;;;;;22.05;50.37;101438.09;4946937;29;20182;-82
2022/05/17 04:03:32;;;;;;;8.50;4.78;;;;;;;21.93;50.36;101413.44;4947746;28;20051;-82
2022/05/17 04:06:00;;;;;;;8.30;4.70;;;;;;;21.82;49.82;101395.84;4948935;28;20244;-82
2022/05/17 04:08:27;;;;;;;10.55;5.75;;;;;;;21.51;49.49;101342.91;4948154;29;20493;-82
2022/05/17 04:10:53;;;;;;;8.23;4.95;;;;;;;22.11;49.45;101446.28;4947200;29;20114;-82
2022/05/17 04:13:20;;;;;;;9.68;4.93;;;;;;;22.06;49.54;101447.88;4946732;29;20047;-82
2022/05/17 04:15:47;;;;;;;5.68;4.93;;;;;;;21.88;49.44;101424.81;4946959;29;20063;-82
2022/05/17 04:18:13;;;;;;;8.85;4.82;;;;;;;21.66;49.08;101379.88;4946780;28;20050;-82
2022/05/17 04:20:40;;;;;;;6.50;5.05;;;;;;;22.10;49.24;101462.69;4946748;29;20102;-82
2022/05/17 04:23:09;;;;;;;7.68;5.03;;;;;;;22.08;48.66;101453.91;4947838;28;20059;-82
2022/05/17 04:25:35;;;;;;;8.43;5.15;;;;;;;21.81;48.59;101409.56;4946762;29;20516;-81
2022/05/17 04:28:02;;;;;;;5.30;4.80;;;;;;;21.86;48.45;101429.56;4944753;28;20052;-82
2022/05/17 04:30:29;;;;;;;6.00;5.13;;;;;;;20.35;49.03;101203.34;4945782;29;20083;-82
2022/05/17 04:32:56;;;;;;;7.85;5.03;;;;;;;21.77;49.48;101453.19;4945561;29;20053;-82
2022/05/17 04:35:23;;;;;;;5.68;4.90;;;;;;;21.64;49.70;101442.19;4944971;29;20059;-81
2022/05/17 04:37:51;;;;;;;6.68;5.30;;;;;;;21.44;49.83;101423.03;4945818;29;20048;-82
2022/05/17 04:40:18;;;;;;;8.80;5.50;;;;;;;21.83;49.27;101472.38;4945133;29;20051;-82
2022/05/17 04:42:46;;;;;;;10.50;4.32;;;;;;;21.77;49.61;101461.28;4945238;29;20089;-82
2022/05/17 04:45:15;;;;;;;8.27;5.05;;;;;;;21.59;49.63;101435.69;4946707;28;20648;-81
2022/05/17 04:47:43;;;;;;;12.95;5.32;;;;;;;21.81;49.74;101474.41;4945757;29;20063;-81
2022/05/17 04:50:13;;;;;;;11.18;5.20;;;;;;;21.35;49.94;101395.25;4946719;28;20055;-79
2022/05/17 04:52:41;;;;;;;10.40;4.88;;;;;;;21.69;49.85;101441.63;4932250;28;20055;-81
2022/05/17 04:55:08;;;;;;;5.40;4.90;;;;;;;21.93;49.48;101476.44;4928214;28;20569;-80
2022/05/17 04:57:35;;;;;;;9.52;4.95;;;;;;;21.96;49.55;101470.63;4926833;29;20059;-80
2022/05/17 05:00:08;;;;;;;10.35;5.47;;;;;;;21.72;49.33;101438.53;4942311;29;20525;-81
2022/05/17 05:02:35;;;;;;;6.03;5.40;;;;;;;21.91;49.42;101459.56;4927667;28;20051;-81
2022/05/17 05:05:04;;;;;;;9.95;6.10;;;;;;;21.94;49.65;101464.59;4926287;29;20155;-81
2022/05/17 05:07:31;;;;;;;7.43;5.65;;;;;;;22.08;49.04;101486.38;4926329;29;20043;-82
2022/05/17 05:09:57;;;;;;;8.70;6.07;;;;;;;20.97;49.55;101310.03;4927561;29;20517;-82
2022/05/17 05:12:26;;;;;;;8.00;5.78;;;;;;;20.79;49.75;101281.56;4945106;29;20063;-81
2022/05/17 05:14:52;;;;;;;13.57;5.95;;;;;;;22.05;49.91;101484.06;4946650;28;20051;-82
2022/05/17 05:17:21;;;;;;;10.02;6.75;;;;;;;21.92;50.11;101439.63;4944889;29;20537;-82
2022/05/17 05:19:48;;;;;;;13.10;6.03;;;;;;;21.69;50.80;101425.41;4945543;29;20083;-82
2022/05/17 05:22:15;;;;;;;15.77;8.32;;;;;;;21.98;51.94;101465.88;4944950;29;20047;-82
2022/05/17 05:24:41;;;;;;;9.90;7.70;;;;;;;21.66;52.79;101423.94;4946498;28;20055;-82
2022/05/17 05:27:08;;;;;;;13.18;7.13;;;;;;;21.89;53.28;101467.00;4945113;29;20075;-82
2022/05/17 05:29:34;;;;;;;12.55;7.07;;;;;;;21.90;53.76;101468.72;4945301;29;20062;-82
2022/05/17 05:32:01;;;;;;;11.93;7.45;;;;;;;22.03;53.62;101478.81;4944701;29;20129;-82
2022/05/17 05:34:28;;;;;;;12.73;8.52;;;;;;;21.54;53.90;101388.47;4946928;28;20043;-82
2022/05/17 05:36:54;;;;;;;13.38;9.23;;;;;;;21.67;54.22;101389.63;4947927;29;20457;-81
2022/05/17 05:39:21;;;;;;;27.23;10.43;;;;;;;22.01;55.28;101464.66;4947338;29;20047;-82
2022/05/17 05:41:48;;;;;;;15.13;10.50;;;;;;;22.32;53.37;101491.44;4947596;29;20051;-81
2022/05/17 05:44:15;;;;;;;20.98;10.48;;;;;;;22.23;53.55;101467.41;4949256;28;20517;-81
2022/05/17 05:46:42;;;;;;;11.55;9.30;;;;;;;22.22;52.51;101465.75;4947149;28;20473;-81
2022/05/17 05:49:09;;;;;;;13.60;9.23;;;;;;;22.43;51.49;101470.31;4947460;29;20074;-81
2022/05/17 05:51:40;;;;;;;13.77;8.65;;;;;;;22.28;51.47;101460.44;4928412;29;20495;-81
2022/05/17 05:54:07;;;;;;;19.67;8.77;;;;;;;22.42;51.47;101501.94;4968063;28;20078;-79
2022/05/17 05:56:36;;;;;;;11.95;8.13;;;;;;;22.32;51.60;101477.91;4951359;28;20490;-82
2022/05/17 05:59:02;;;;;;;14.18;8.20;;;;;;;22.45;51.58;101488.03;4948053;29;20086;-81
2022/05/17 06:01:29;;;;;;;9.75;7.82;;;;;;;22.48;51.17;101489.53;4947681;29;20130;-82
2022/05/17 06:03:56;;;;;;;11.60;7.50;;;;;;;22.58;50.93;101481.94;4947351;29;20075;-82
2022/05/17 06:06:23;;;;;;;12.27;8.07;;;;;;;22.57;51.17;101472.13;4965119;28;20137;-80
2022/05/17 06:08:53;;;;;;;16.85;8.05;;;;;;;22.59;51.50;101484.41;4951938;28;20101;-81
2022/05/17 06:11:19;;;;;;;9.70;7.25;;;;;;;22.44;51.36;101442.25;4951511;28;20495;-81
2022/05/17 06:13:47;;;;;;;12.32;8.10;;;;;;;22.95;50.69;101488.88;4952605;28;20063;-82
2022/05/17 06:16:14;;;;;;;14.43;7.60;;;;;;;22.73;51.71;101465.59;4968992;28;20092;-82
2022/05/17 06:18:41;;;;;;;8.30;7.50;;;;;;;22.86;51.70;101479.22;4952454;28;20098;-82
2022/05/17 06:21:08;;;;;;;14.18;8.75;;;;;;;22.79;51.31;101449.41;4952094;28;20101;-82
2022/05/17 06:23:35;;;;;;;15.30;8.60;;;;;;;22.62;51.30;101420.94;4936468;28;20079;-81
2022/05/17 06:26:02;;;;;;;8.32;7.28;;;;;;;23.11;50.66;101485.09;4951954;28;20414;-82
2022/05/17 06:28:29;;;;;;;11.05;7.63;;;;;;;22.84;50.75;101432.56;4969226;28;20133;-80
2022/05/17 06:30:59;;;;;;;13.00;8.10;;;;;;;23.17;50.63;101491.56;4952061;28;20161;-81
2022/05/17 06:33:29;;;;;;;12.88;7.88;;;;;;;23.32;50.28;101494.16;4951944;28;20500;-82
2022/05/17 06:35:59;;;;;;;16.63;7.70;;;;;;;23.23;50.19;101480.78;4952071;28;20053;-81
2022/05/17 06:38:26;;;;;;;12.70;7.53;;;;;;;23.27;49.96;101491.22;4952080;28;20117;-81
2022/05/17 06:40:53;;;;;;;11.32;8.20;;;;;;;23.12;50.06;101464.25;4951968;28;20051;-81
2022/05/17 06:43:20;;;;;;;15.27;8.05;;;;;;;22.48;49.58;101333.44;4953254;28;20460;-81
2022/05/17 06:45:48;;;;;;;12.90;7.32;;;;;;;23.35;49.99;101489.19;4951778;28;20054;-81
2022/05/17 06:48:15;;;;;;;11.85;6.32;;;;;;;23.44;50.24;101490.69;4951603;28;20051;-82
2022/05/17 06:50:42;;;;;;;13.73;8.30;;;;;;;23.10;49.62;101418.41;4950184;28;20146;-81
2022/05/17 06:53:10;;;;;;;11.18;7.03;;;;;;;23.50;49.32;101464.69;4951215;28;20394;-80
2022/05/17 06:55:38;;;;;;;9.63;7.60;;;;;;;23.63;48.75;101491.84;4951798;28;20066;-80
2022/05/17 06:58:05;;;;;;;8.50;7.32;;;;;;;23.53;48.59;101480.53;4936017;28;20055;-81
2022/05/17 07:00:32;;;;;;;11.55;6.53;;;;;;;23.10;49.54;101431.94;4951013;28;20198;-81
2022/05/17 07:02:59;;;;;;;10.90;7.40;;;;;;;23.53;49.51;101471.56;4968381;28;20050;-80
2022/05/17 07:05:27;;;;;;;12.05;7.03;;;;;;;23.32;49.23;101434.56;4951278;28;20169;-82
2022/05/17 07:08:01;;;;;;;10.57;6.72;;;;;;;23.52;49.17;101449.06;4969184;28;20070;-82
2022/05/17 07:13:16;;;;;;;10.65;7.25;;;;;;;23.73;48.87;101482.50;4968300;28;20043;-82
2022/05/17 07:15:46;;;;;;;8.85;7.07;;;;;;;23.63;48.86;101459.31;4951036;28;20508;-82
2022/05/17 07:18:19;;;;;;;16.15;6.93;;;;;;;23.48;48.28;101423.41;4951229;28;20057;-82
2022/05/17 07:20:47;;;;;;;13.30;7.20;;;;;;;23.92;48.00;101460.06;4967775;28;20082;-82
2022/05/17 07:23:14;;;;;;;20.30;8.32;;;;;;;23.96;48.26;101461.34;4950639;28;20521;-82
2022/05/17 07:25:43;;;;;;;13.80;7.18;;;;;;;23.90;48.25;101464.88;4968201;28;20102;-82
2022/05/17 07:28:13;;;;;;;10.00;6.78;;;;;;;23.98;48.41;101477.41;4968046;28;20046;-82
2022/05/17 07:30:40;;;;;;;13.05;7.95;;;;;;;23.67;48.26;101425.34;4951126;28;20473;-81
2022/05/17 07:33:06;;;;;;;8.35;6.80;;;;;;;24.10;48.06;101460.34;4967984;28;20371;-81
2022/05/17 07:35:33;;;;;;;10.73;6.35;;;;;;;24.04;49.02;101463.88;4969328;28;20074;-81
2022/05/17 07:38:03;;;;;;;13.00;7.22;;;;;;;23.92;48.57;101441.09;4968276;28;20067;-82
2022/05/17 07:40:30;;;;;;;12.93;6.57;;;;;;;23.14;48.02;101300.53;4950583;28;20047;-82
2022/05/17 07:43:00;;;;;;;11.70;6.53;;;;;;;23.20;48.44;101302.41;4968705;28;20262;-83
2022/05/17 07:45:27;;;;;;;15.52;6.30;;;;;;;23.42;48.72;101332.06;4952757;28;20058;-83
2022/05/17 07:47:54;;;;;;;7.72;6.40;;;;;;;24.33;48.50;101463.72;4968487;28;20067;-83
2022/05/17 07:50:21;;;;;;;10.52;7.10;;;;;;;24.39;48.08;101444.72;4950624;28;20504;-81
2022/05/17 07:52:47;;;;;;;15.98;6.80;;;;;;;24.37;47.90;101425.13;4959605;28;20109;-83
2022/05/17 07:55:14;;;;;;;10.82;6.65;;;;;;;24.14;48.23;101381.28;4948777;28;20220;-83
2022/05/17 07:57:41;;;;;;;13.38;6.70;;;;;;;24.44;48.22;101416.97;4962994;28;20054;-82
2022/05/17 08:00:08;;;;;;;11.40;7.43;;;;;;;24.70;48.56;101465.84;4947499;28;20279;-80
2022/05/17 08:02:38;;;;;;;11.98;7.32;;;;;;;24.81;48.68;101461.69;4948628;28;20133;-83
2022/05/17 08:05:05;;;;;;;9.00;7.65;;;;;;;24.70;49.10;101460.44;4948930;28;20059;-83
2022/05/17 08:07:32;;;;;;;15.48;9.20;;;;;;;24.74;49.59;101436.41;4947952;28;20061;-81
2022/05/17 08:09:59;;;;;;;13.70;8.82;;;;;;;24.28;49.82;101361.25;4948510;28;20567;-82
2022/05/17 08:12:26;;;;;;;17.58;7.93;;;;;;;24.91;49.96;101456.66;4948326;28;20058;-84
2022/05/17 08:14:53;;;;;;;14.07;10.73;;;;;;;25.00;50.08;101459.16;4947034;28;20059;-83
2022/05/17 08:17:21;;;;;;;16.25;10.43;;;;;;;24.95;50.31;101448.91;4946401;28;20355;-83
2022/05/17 08:19:48;;;;;;;17.10;10.40;;;;;;;25.21;49.67;101458.94;4946148;28;20050;-80
2022/05/17 08:22:15;;;;;;;12.27;9.32;;;;;;;24.81;50.23;101404.66;4946296;28;20086;-84
2022/05/17 08:27:32;;;;;;;18.50;11.18;;;;;;;24.84;50.39;101382.50;4964112;28;20382;-82
2022/05/17 08:30:00;;;;;;;18.52;12.82;;;;;;;25.26;50.53;101442.81;4947383;28;20125;-82
2022/05/17 08:35:12;;;;;;;17.05;12.15;;;;;;;25.45;50.65;101459.28;4964167;28;20074;-81
2022/05/17 08:37:39;;;;;;;19.73;11.23;;;;;;;25.22;51.69;101422.59;4947582;28;20465;-84
2022/05/17 08:40:06;;;;;;;15.80;12.07;;;;;;;25.43;51.91;101453.22;4947089;28;20109;-81
2022/05/17 08:42:42;;;;;;;23.15;12.52;;;;;;;25.62;52.12;101467.81;4947023;28;20046;-81
2022/05/17 08:45:16;;;;;;;15.98;13.07;;;;;;;25.67;51.89;101466.09;4948490;28;20055;-82
2022/05/17 08:47:52;;;;;;;14.40;10.88;;;;;;;25.72;51.19;101447.25;4948060;28;20055;-81
2022/05/17 08:50:31;;;;;;;19.63;10.85;;;;;;;25.84;51.01;101460.19;4948403;28;20106;-81
2022/05/17 08:52:57;;;;;;;23.17;10.30;;;;;;;25.83;50.08;101436.72;4948079;28;20358;-81
2022/05/17 08:55:40;;;;;;;14.45;8.95;;;;;;;25.93;50.27;101453.47;4948089;28;20077;-82
2022/05/17 08:58:12;;;;;;;15.18;10.20;;;;;;;26.05;50.43;101462.59;4947559;28;20145;-82
2022/05/17 09:00:43;;;;;;;13.95;10.52;;;;;;;25.95;50.15;101448.66;4947451;28;20059;-82
2022/05/17 09:03:20;;;;;;;18.63;11.05;;;;;;;25.82;49.70;101403.25;4947716;28;20051;-81
2022/05/17 09:05:57;;;;;;;20.17;11.57;;;;;;;25.96;50.18;101428.53;4964325;28;20438;-81
2022/05/17 09:08:47;;;;;;;14.02;11.80;;;;;;;26.19;50.03;101468.78;4947972;28;20575;-82
2022/05/17 09:11:19;;;;;;;14.30;10.35;;;;;;;25.86;49.88;101420.03;4933049;29;20043;-82
2022/05/17 09:13:56;;;;;;;17.67;10.98;;;;;;;26.27;50.29;101470.44;4961943;28;20090;-82
2022/05/17 09:16:46;;;;;;;19.63;11.50;;;;;;;26.08;50.13;101424.06;4952816;28;20051;-83
2022/05/17 09:19:15;;;;;;;24.77;13.07;;;;;;;26.06;50.61;101415.28;4951040;28;20567;-82
2022/05/17 09:21:44;;;;;;;12.63;10.05;;;;;;;25.32;50.19;101287.09;4950398;28;20054;-82
2022/05/17 09:24:18;;;;;;;23.98;13.15;;;;;;;26.65;49.08;101437.69;4967999;28;20391;-82
2022/05/17 09:26:50;;;;;;;19.55;11.38;;;;;;;26.38;49.91;101407.09;4951179;28;20055;-82
2022/05/17 09:29:39;;;;;;;20.02;14.43;;;;;;;26.87;49.62;101454.47;4968965;28;20058;-83
2022/05/17 09:32:08;;;;;;;18.67;12.35;;;;;;;26.63;50.02;101437.91;4951681;28;20117;-81
2022/05/17 09:34:44;;;;;;;15.50;11.50;;;;;;;26.65;50.46;101415.91;4952208;28;20058;-82
2022/05/17 09:37:18;;;;;;;16.35;11.93;;;;;;;26.76;49.82;101430.69;4953841;28;20055;-82
2022/05/17 09:39:50;;;;;;;16.80;12.45;;;;;;;26.64;49.67;101412.34;4956213;28;20137;-82
2022/05/17 09:42:34;;;;;;;14.45;11.63;;;;;;;26.81;49.66;101420.78;4954304;28;20141;-82
2022/05/17 09:45:10;;;;;;;16.73;11.73;;;;;;;26.98;49.08;101434.66;4954678;28;20061;-82
2022/05/17 09:48:02;;;;;;;15.10;10.27;;;;;;;27.20;49.77;101454.16;4969937;28;20058;-82
2022/05/17 09:53:22;;;;;;;18.25;11.73;;;;;;;27.47;48.17;101432.88;4970998;28;20050;-83
2022/05/17 09:55:56;;;;;;;12.52;10.85;;;;;;;27.64;48.15;101452.16;4968246;28;20094;-82
2022/05/17 09:58:33;;;;;;;19.20;10.02;;;;;;;27.74;48.05;101443.44;4949928;28;20488;-82
2022/05/17 10:01:11;;;;;;;15.80;11.50;;;;;;;27.92;48.07;101440.69;4949936;28;20057;-81
2022/05/17 10:03:57;;;;;;;13.63;11.10;;;;;;;28.00;46.92;101414.16;4964330;28;20765;-82
2022/05/17 10:06:29;;;;;;;16.85;10.63;;;;;;;28.09;47.06;101415.50;4965603;28;20058;-83
2022/05/17 10:09:02;;;;;;;17.92;11.35;;;;;;;28.26;47.52;101440.22;4966816;28;20058;-83
2022/05/17 10:11:40;;;;;;;20.88;12.93;;;;;;;28.16;47.23;101386.19;4949895;28;20445;-83
2022/05/17 10:14:11;;;;;;;15.57;11.23;;;;;;;28.47;47.53;101414.25;4949661;28;20327;-83
2022/05/17 10:16:56;;;;;;;16.45;12.13;;;;;;;28.65;46.96;101433.28;4949915;28;20090;-82
2022/05/17 10:19:46;;;;;;;20.73;11.15;;;;;;;28.72;47.47;101438.66;4967248;28;20230;-82
2022/05/17 10:22:25;;;;;;;17.02;11.30;;;;;;;28.86;47.02;101431.03;4967318;28;20053;-82
2022/05/17 10:25:25;;;;;;;14.55;11.52;;;;;;;28.11;46.92;101306.91;4950354;28;20058;-82
2022/05/17 10:28:09;;;;;;;17.52;11.40;;;;;;;28.73;46.98;101391.13;4962442;28;20047;-82
2022/05/17 10:30:41;;;;;;;20.00;11.38;;;;;;;28.97;46.00;101394.66;4967567;28;20116;-83
2022/05/17 10:33:15;;;;;;;12.30;10.20;;;;;;;29.07;46.54;101408.56;4950717;28;20133;-81
2022/05/17 10:35:45;;;;;;;19.13;12.07;;;;;;;29.41;45.73;101419.69;4967935;28;20401;-82
2022/05/17 10:38:17;;;;;;;17.15;10.68;;;;;;;29.50;45.93;101418.22;4950294;28;20051;-83
2022/05/17 10:40:49;;;;;;;12.32;9.82;;;;;;;29.61;45.88;101414.63;4949608;28;20349;-81
2022/05/17 10:43:27;;;;;;;14.93;10.68;;;;;;;29.86;44.98;101410.75;4965560;28;20105;-82
2022/05/17 10:46:04;;;;;;;19.73;10.95;;;;;;;29.45;44.40;101360.69;4950521;28;20078;-80
2022/05/17 10:48:48;;;;;;;13.70;9.43;;;;;;;29.93;44.46;101405.09;4967549;28;20536;-83
2022/05/17 10:51:44;;;;;;;15.30;9.75;;;;;;;29.86;44.10;101375.16;4950492;28;20105;-82
2022/05/17 10:54:24;;;;;;;17.77;9.77;;;;;;;30.36;43.82;101415.44;4898928;29;20051;-82
2022/05/17 10:57:02;;;;;;;21.80;10.38;;;;;;;30.58;43.04;101401.81;4951440;28;20237;-83
2022/05/17 10:59:37;;;;;;;11.52;9.07;;;;;;;30.72;43.18;101396.00;4967098;28;20055;-82
2022/05/17 11:02:27;;;;;;;11.68;9.18;;;;;;;30.82;43.66;101390.66;4967581;28;20439;-81
2022/05/17 11:05:19;;;;;;;14.00;10.70;;;;;;;30.87;42.63;101388.84;4949822;28;20094;-80
2022/05/17 11:07:49;;;;;;;12.52;8.88;;;;;;;30.88;43.45;101385.03;4947538;28;20068;-82
2022/05/17 11:10:45;;;;;;;15.05;11.60;;;;;;;30.77;41.69;101331.13;4949602;28;20050;-84
2022/05/17 11:13:31;;;;;;;13.90;9.63;;;;;;;31.07;41.45;101387.47;4917247;29;20051;-82
2022/05/17 11:16:06;;;;;;;15.68;8.18;;;;;;;31.23;41.94;101383.00;4930881;29;20618;-83
2022/05/17 11:18:52;;;;;;;14.70;8.68;;;;;;;31.42;39.99;101372.56;4947803;29;20078;-84
2022/05/17 11:21:30;;;;;;;11.80;7.93;;;;;;;31.39;39.08;101356.59;4929839;29;20080;-86
2022/05/17 11:24:03;;;;;;;13.10;8.10;;;;;;;31.60;40.15;101374.13;4938698;28;20054;-83
2022/05/17 11:26:55;;;;;;;21.73;9.93;;;;;;;31.62;39.92;101367.28;4934558;28;20502;-82
2022/05/17 11:29:37;;;;;;;13.55;9.73;;;;;;;31.40;40.17;101312.47;4967466;28;20156;-83
2022/05/17 11:32:25;;;;;;;14.10;8.73;;;;;;;31.96;39.38;101367.09;4949771;28;20571;-82
2022/05/17 11:34:54;;;;;;;14.77;9.13;;;;;;;31.82;40.12;101314.50;4968030;28;20065;-82
2022/05/17 11:37:33;;;;;;;12.05;9.10;;;;;;;32.21;40.50;101362.91;4950883;28;20042;-82
2022/05/17 11:40:10;;;;;;;12.32;9.73;;;;;;;32.30;39.24;101325.63;4951226;28;20559;-82
2022/05/17 11:43:40;;;;;;;12.95;8.55;;;;;;;32.54;38.82;101359.06;4948995;28;20559;-83
2022/05/17 11:45:49;;;;;;;16.55;8.27;;;;;;;32.75;39.10;101335.25;4965727;28;20370;-82
2022/05/17 11:48:19;;;;;;;12.13;9.10;;;;;;;33.01;37.15;101344.44;4948407;28;20047;-82
2022/05/17 11:50:51;;;;;;;9.88;7.97;;;;;;;32.97;37.68;101338.66;4964892;28;20561;-83
2022/05/17 11:53:24;;;;;;;19.80;9.35;;;;;;;32.86;37.33;101301.19;4947491;28;20307;-83